Lulu Pass Weather Station

This weather station provides temperature, relative humidity (RH), wind speed, gust or max wind speed, and wind direction at 10014ft near Lulu Pass at the head of Fisher Creek. This data can be used with temperature and precipitation data from the Fisher Creek SNOTEL site.

This weather station was purchased by the Friends of the Avalanche Center.

If the data has not been updated recently you can view it directly on datagarrison.com

Elevation
10014ft
Jump to table bottom
Date Time Temperature
deg F
RH, % Wind Speed Wind Gust Wind Direction
11/24/17 09:00 23.2 96 17 37 W - 284
11/24/17 08:00 23.2 97 18 35 W - 282
11/24/17 07:00 24.2 98 22 38 NW - 293
11/24/17 06:00 25.4 98 23 46 W - 282
11/24/17 05:00 26.5 99 28 57 W - 285
11/24/17 04:00 27.2 99 25 63 W - 271
11/24/17 03:00 29.1 99 24 79 W - 248
11/24/17 02:00 30.0 98 25 58 SW - 222
11/24/17 01:00 30.5 96 21 56 SW - 233
11/24/17 00:00 30.8 97 28 58 SW - 218
11/23/17 23:00 31.1 95 26 60 SW - 223
11/23/17 22:00 31.4 90 21 48 SW - 223
11/23/17 21:00 31.5 90 18 47 SW - 232
11/23/17 20:00 31.4 94 14 35 SW - 226
11/23/17 19:00 31.5 95 22 54 SW - 204
11/23/17 18:00 32.3 93 21 49 SW - 215
11/23/17 17:00 32.6 92 22 48 SW - 219
11/23/17 16:00 32.9 93 15 44 SW - 227
11/23/17 15:00 33.3 93 16 41 SW - 229
11/23/17 14:00 33.9 91 15 46 SW - 222
11/23/17 13:00 34.2 92 20 38 S - 202
11/23/17 12:00 34.1 93 23 44 SW - 205
11/23/17 11:00 34.4 93 18 45 SW - 218
11/23/17 10:00 33.3 97 27 59 SW - 212
11/23/17 09:00 32.6 100 28 52 SW - 211
11/23/17 08:00 32.4 100 30 53 SW - 213
11/23/17 07:00 32.0 100 28 58 SW - 213
11/23/17 06:00 31.9 100 21 50 SW - 211
11/23/17 05:00 31.3 100 15 28 SW - 211
11/23/17 04:00 31.3 100 13 37 SW - 215
11/23/17 03:00 31.8 100 13 31 SW - 213
11/23/17 02:00 31.9 100 16 37 SW - 205
11/23/17 01:00 31.9 100 15 30 S - 199
11/23/17 00:00 31.8 100 12 31 SW - 211
11/22/17 23:00 31.6 100 13 26 SW - 223
11/22/17 22:00 31.7 100 14 26 SW - 226
11/22/17 21:00 31.8 100 9 22 SW - 226
11/22/17 20:00 31.9 100 9 20 SW - 229
11/22/17 19:00 31.9 100 11 25 SW - 225
11/22/17 18:00 31.9 100 14 28 SW - 209
11/22/17 17:00 31.9 100 13 24 S - 198
11/22/17 16:00 32.0 100 16 31 S - 191
11/22/17 15:00 32.1 100 13 26 SW - 220
11/22/17 14:00 32.2 100 13 25 SW - 218
11/22/17 13:00 32.2 100 11 25 SW - 222
11/22/17 12:00 32.1 100 11 23 SW - 223
11/22/17 11:00 31.9 100 12 29 SW - 229
11/22/17 10:00 31.7 100 11 26 SW - 234
11/22/17 09:00 31.2 100 10 23 SW - 222
11/22/17 08:00 30.7 100 10 22 SW - 227
https://datagarrison.com/users/300034012539980/300234064338030/temp/300234064338030_live.txt